Time;durP1;ratioP1;P1;durP2;ratioP2;P2;SDS_P1;SDS_P2;PMS_P1;PMS_P2;Temp;Humidity;BMP_temperature;BMP_pressure;BME280_temperature;BME280_humidity;BME280_pressure;Samples;Min_cycle;Max_cycle;Signal;HPM_P1;HPM_P2
2021/03/09 00:01:57;;;;;;;11.15;6.70;;;;;;;;;;5040498;28;20112;-83
2021/03/09 00:04:22;;;;;;;11.33;6.43;;;;;;;;;;5035495;28;20056;-82
2021/03/09 00:06:48;;;;;;;11.88;7.63;;;;;;;;;;5033330;28;20350;-84
2021/03/09 00:09:13;;;;;;;11.90;6.87;;;;;;;;;;5035826;28;20104;-84
2021/03/09 00:11:38;;;;;;;10.57;6.90;;;;;;;;;;5037511;28;20264;-85
2021/03/09 00:14:03;;;;;;;11.27;6.50;;;;;;;;;;5037396;28;20060;-84
2021/03/09 00:16:29;;;;;;;10.37;6.70;;;;;;;;;;5036519;28;20030;-84
2021/03/09 00:18:54;;;;;;;10.50;6.82;;;;;;;;;;5035539;28;20653;-85
2021/03/09 00:21:19;;;;;;;10.90;6.63;;;;;;;;;;5035206;28;20029;-84
2021/03/09 00:23:45;;;;;;;10.88;6.78;;;;;;;;;;5034844;28;20022;-84
2021/03/09 00:26:10;;;;;;;12.13;6.90;;;;;;;;;;5034190;28;20018;-83
2021/03/09 00:28:35;;;;;;;12.07;6.65;;;;;;;;;;5035345;28;20256;-84
2021/03/09 00:31:01;;;;;;;10.05;6.68;;;;;;;;;;5034901;28;20052;-83
2021/03/09 00:33:26;;;;;;;12.15;6.95;;;;;;;;;;5035703;28;20029;-86
2021/03/09 00:35:51;;;;;;;9.80;6.38;;;;;;;;;;5039698;28;20025;-84
2021/03/09 00:38:17;;;;;;;11.60;7.70;;;;;;;;;;5041737;28;20045;-86
2021/03/09 00:40:42;;;;;;;11.32;6.65;;;;;;;;;;5052513;28;20287;-86
2021/03/09 00:43:07;;;;;;;10.70;6.78;;;;;;;;;;5051345;28;20021;-85
2021/03/09 00:45:33;;;;;;;10.10;6.47;;;;;;;;;;5041619;28;20033;-84
2021/03/09 00:47:58;;;;;;;10.85;6.57;;;;;;;;;;5054175;28;20287;-84
2021/03/09 00:50:23;;;;;;;10.48;6.30;;;;;;;;;;5057944;28;19994;-84
2021/03/09 00:52:49;;;;;;;10.13;6.68;;;;;;;;;;5056290;28;20037;-84
2021/03/09 00:55:14;;;;;;;10.67;7.10;;;;;;;;;;5039781;28;20068;-84
2021/03/09 00:57:39;;;;;;;11.50;6.90;;;;;;;;;;5034129;28;20268;-80
2021/03/09 01:00:05;;;;;;;10.73;6.50;;;;;;;;;;5047196;28;20079;-83
2021/03/09 01:02:30;;;;;;;13.45;7.13;;;;;;;;;;5040873;28;20495;-84
2021/03/09 01:04:55;;;;;;;10.27;6.40;;;;;;;;;;5036769;28;20635;-85
2021/03/09 01:07:21;;;;;;;10.57;6.33;;;;;;;;;;5036354;28;20053;-85
2021/03/09 01:09:46;;;;;;;11.02;6.25;;;;;;;;;;5036035;28;20252;-85
2021/03/09 01:12:11;;;;;;;11.68;7.25;;;;;;;;;;5036095;28;20054;-85
2021/03/09 01:14:37;;;;;;;9.33;5.83;;;;;;;;;;5035420;28;20048;-84
2021/03/09 01:17:02;;;;;;;9.93;6.37;;;;;;;;;;5034160;28;20268;-84
2021/03/09 01:19:27;;;;;;;10.55;6.32;;;;;;;;;;5035765;28;20367;-84
2021/03/09 01:21:53;;;;;;;12.00;7.32;;;;;;;;;;5034456;28;20406;-84
2021/03/09 01:24:18;;;;;;;11.60;6.43;;;;;;;;;;5036035;28;20029;-84
2021/03/09 01:26:43;;;;;;;9.30;5.90;;;;;;;;;;5035558;28;20531;-84
2021/03/09 01:29:09;;;;;;;10.68;6.50;;;;;;;;;;5034746;28;20513;-84
2021/03/09 01:31:34;;;;;;;10.98;6.95;;;;;;;;;;5035443;28;20021;-84
2021/03/09 01:33:59;;;;;;;11.52;7.05;;;;;;;;;;5035957;28;20026;-84
2021/03/09 01:36:24;;;;;;;10.25;6.15;;;;;;;;;;5035626;28;20025;-85
2021/03/09 01:38:50;;;;;;;12.00;6.63;;;;;;;;;;5044892;28;20029;-84
2021/03/09 01:41:15;;;;;;;9.20;6.10;;;;;;;;;;5039270;28;20321;-83
2021/03/09 01:43:40;;;;;;;11.43;6.85;;;;;;;;;;5034380;28;20422;-84
2021/03/09 01:46:06;;;;;;;10.27;6.43;;;;;;;;;;5036366;28;20112;-84
2021/03/09 01:48:34;;;;;;;11.15;6.35;;;;;;;;;;5034740;28;20780;-84
2021/03/09 01:50:59;;;;;;;12.77;7.15;;;;;;;;;;5033356;28;20017;-83
2021/03/09 01:53:25;;;;;;;9.57;5.93;;;;;;;;;;5034086;28;20031;-85
2021/03/09 01:55:50;;;;;;;11.68;7.28;;;;;;;;;;5034012;28;20264;-85
2021/03/09 01:58:15;;;;;;;11.20;7.07;;;;;;;;;;5033056;28;20029;-84
2021/03/09 02:00:41;;;;;;;10.37;6.33;;;;;;;;;;5028787;28;20026;-83
2021/03/09 02:03:06;;;;;;;11.30;6.63;;;;;;;;;;5026697;28;20284;-85
2021/03/09 02:05:31;;;;;;;12.93;7.03;;;;;;;;;;5034556;28;20044;-85
2021/03/09 02:07:57;;;;;;;11.50;6.80;;;;;;;;;;5035100;28;20036;-85
2021/03/09 02:10:22;;;;;;;9.70;6.38;;;;;;;;;;5034628;28;20150;-84
2021/03/09 02:12:53;;;;;;;10.35;6.40;;;;;;;;;;5032791;28;20097;-84
2021/03/09 02:15:28;;;;;;;10.32;6.72;;;;;;;;;;5033747;28;20025;-85
2021/03/09 02:17:56;;;;;;;10.90;6.97;;;;;;;;;;5033679;28;20048;-84
2021/03/09 02:20:43;;;;;;;11.50;7.03;;;;;;;;;;5033766;28;20060;-84
2021/03/09 02:23:27;;;;;;;9.95;5.78;;;;;;;;;;5033752;28;20036;-85
2021/03/09 02:26:01;;;;;;;10.73;6.35;;;;;;;;;;5033917;28;20036;-84
2021/03/09 02:28:29;;;;;;;10.05;7.07;;;;;;;;;;5033632;28;20041;-81
2021/03/09 02:30:56;;;;;;;10.90;6.63;;;;;;;;;;5033292;28;20052;-85
2021/03/09 02:33:24;;;;;;;10.30;6.22;;;;;;;;;;5032495;28;20025;-85
2021/03/09 02:35:56;;;;;;;12.35;6.90;;;;;;;;;;5034589;28;20552;-85
2021/03/09 02:38:21;;;;;;;9.65;6.47;;;;;;;;;;5036173;28;20037;-85
2021/03/09 02:40:48;;;;;;;10.88;6.85;;;;;;;;;;5033331;28;20033;-85
2021/03/09 02:43:15;;;;;;;11.13;6.82;;;;;;;;;;5032454;28;20111;-84
2021/03/09 02:45:40;;;;;;;10.25;6.35;;;;;;;;;;5031759;28;20061;-85
2021/03/09 02:48:06;;;;;;;10.45;6.57;;;;;;;;;;5032106;28;20033;-85
2021/03/09 02:50:33;;;;;;;10.57;6.22;;;;;;;;;;5033654;28;20032;-85
2021/03/09 02:53:00;;;;;;;11.57;6.90;;;;;;;;;;5031978;28;20029;-84
2021/03/09 02:55:26;;;;;;;11.85;6.75;;;;;;;;;;5034056;28;20021;-85
2021/03/09 02:57:51;;;;;;;12.02;6.95;;;;;;;;;;5032554;28;20101;-84
2021/03/09 03:00:16;;;;;;;9.80;6.47;;;;;;;;;;5031234;28;20490;-84
2021/03/09 03:02:42;;;;;;;11.45;6.82;;;;;;;;;;5033220;28;20037;-84
2021/03/09 03:05:07;;;;;;;10.00;6.78;;;;;;;;;;5030200;28;20080;-85
2021/03/09 03:07:33;;;;;;;12.75;7.50;;;;;;;;;;5014366;28;20026;-84
2021/03/09 03:09:58;;;;;;;9.57;6.68;;;;;;;;;;5030822;28;20051;-84
2021/03/09 03:12:23;;;;;;;11.38;6.95;;;;;;;;;;5035043;28;20402;-86
2021/03/09 03:14:49;;;;;;;11.70;6.83;;;;;;;;;;5035355;28;20017;-85
2021/03/09 03:17:14;;;;;;;11.73;6.63;;;;;;;;;;5034607;28;20267;-84
2021/03/09 03:19:39;;;;;;;11.02;6.45;;;;;;;;;;5036160;28;20727;-81
2021/03/09 03:22:04;;;;;;;10.60;6.50;;;;;;;;;;5032950;28;20024;-87
2021/03/09 03:24:30;;;;;;;12.37;6.90;;;;;;;;;;5032323;28;20890;-85
2021/03/09 03:26:55;;;;;;;10.35;6.18;;;;;;;;;;5033920;28;20294;-84
2021/03/09 03:29:20;;;;;;;10.63;6.40;;;;;;;;;;5037156;28;20048;-84
2021/03/09 03:31:49;;;;;;;10.90;6.80;;;;;;;;;;5031831;28;20259;-85
2021/03/09 03:34:14;;;;;;;11.23;6.90;;;;;;;;;;5034184;28;20013;-83
2021/03/09 03:36:39;;;;;;;10.93;6.45;;;;;;;;;;5032538;28;20025;-85
2021/03/09 03:39:05;;;;;;;11.18;6.72;;;;;;;;;;5034060;28;20021;-83
2021/03/09 03:41:30;;;;;;;8.80;6.38;;;;;;;;;;5033885;28;20024;-84
2021/03/09 03:43:55;;;;;;;9.70;5.97;;;;;;;;;;5033967;28;20052;-84
2021/03/09 03:46:21;;;;;;;9.93;6.20;;;;;;;;;;5032232;28;20688;-86
2021/03/09 03:48:46;;;;;;;10.15;6.45;;;;;;;;;;5032815;28;20263;-85
2021/03/09 03:51:15;;;;;;;9.23;7.00;;;;;;;;;;5030755;28;20025;-85
2021/03/09 03:53:52;;;;;;;9.50;6.72;;;;;;;;;;5023520;28;20049;-86
2021/03/09 03:56:17;;;;;;;10.75;6.47;;;;;;;;;;5033186;28;20150;-84
2021/03/09 03:58:48;;;;;;;10.43;6.37;;;;;;;;;;5032733;28;20032;-83
2021/03/09 04:01:14;;;;;;;10.63;6.63;;;;;;;;;;5031926;28;20287;-84
2021/03/09 04:03:39;;;;;;;10.07;6.30;;;;;;;;;;5032012;28;20518;-85
2021/03/09 04:06:05;;;;;;;10.27;6.25;;;;;;;;;;5032015;28;20042;-85
2021/03/09 04:08:31;;;;;;;9.80;5.95;;;;;;;;;;5037179;28;20120;-85
2021/03/09 04:10:56;;;;;;;9.07;5.75;;;;;;;;;;5034560;28;20537;-84
2021/03/09 04:13:21;;;;;;;10.35;6.10;;;;;;;;;;5022107;28;20045;-85
2021/03/09 04:15:47;;;;;;;9.43;5.73;;;;;;;;;;5038043;28;20034;-85
2021/03/09 04:18:12;;;;;;;10.32;6.00;;;;;;;;;;5024307;28;20304;-84
2021/03/09 04:20:38;;;;;;;9.47;5.97;;;;;;;;;;5057008;28;20014;-84
2021/03/09 04:23:03;;;;;;;8.07;6.30;;;;;;;;;;5043144;28;20302;-85
2021/03/09 04:25:29;;;;;;;9.05;5.63;;;;;;;;;;5043982;28;20395;-85
2021/03/09 04:27:54;;;;;;;8.95;5.75;;;;;;;;;;5043880;28;20094;-84
2021/03/09 04:30:20;;;;;;;11.75;6.63;;;;;;;;;;5042286;28;20025;-85
2021/03/09 04:32:45;;;;;;;9.32;6.20;;;;;;;;;;5042771;28;20498;-85
2021/03/09 04:35:10;;;;;;;8.97;5.87;;;;;;;;;;5024191;28;20078;-85
2021/03/09 04:37:36;;;;;;;9.55;5.80;;;;;;;;;;5039488;28;20249;-85
2021/03/09 04:40:01;;;;;;;9.30;5.90;;;;;;;;;;5053158;28;20014;-86
2021/03/09 04:42:26;;;;;;;11.45;6.22;;;;;;;;;;5024925;28;20072;-84
2021/03/09 04:44:52;;;;;;;8.90;5.77;;;;;;;;;;5043087;28;20052;-85
2021/03/09 04:47:17;;;;;;;8.55;5.60;;;;;;;;;;5041386;28;20280;-82
2021/03/09 04:49:42;;;;;;;9.27;5.93;;;;;;;;;;5043234;28;20024;-88
2021/03/09 04:52:10;;;;;;;9.63;5.97;;;;;;;;;;5042037;28;20056;-82
2021/03/09 04:54:35;;;;;;;9.93;6.13;;;;;;;;;;5035337;28;20081;-81
2021/03/09 04:57:00;;;;;;;14.27;7.83;;;;;;;;;;5037083;28;20493;-78
2021/03/09 04:59:26;;;;;;;10.52;6.15;;;;;;;;;;5039329;28;20279;-79
2021/03/09 05:01:51;;;;;;;10.68;6.07;;;;;;;;;;5055031;28;20029;-77
2021/03/09 05:04:16;;;;;;;10.13;5.90;;;;;;;;;;5048541;28;20049;-82
2021/03/09 05:06:41;;;;;;;11.02;6.22;;;;;;;;;;5055122;28;20272;-78
2021/03/09 05:09:07;;;;;;;9.90;5.78;;;;;;;;;;5050561;28;20025;-77
2021/03/09 05:11:33;;;;;;;9.68;6.22;;;;;;;;;;5049566;28;20064;-78
2021/03/09 05:13:58;;;;;;;9.77;6.43;;;;;;;;;;5052212;28;20025;-76
2021/03/09 05:16:23;;;;;;;9.23;6.10;;;;;;;;;;5043587;28;20025;-79
2021/03/09 05:18:49;;;;;;;8.10;6.00;;;;;;;;;;5042006;28;20040;-77
2021/03/09 05:21:14;;;;;;;7.60;5.55;;;;;;;;;;5037373;28;20414;-79
2021/03/09 05:23:39;;;;;;;9.63;6.07;;;;;;;;;;5043355;28;20113;-75
2021/03/09 05:26:05;;;;;;;9.77;5.73;;;;;;;;;;5032208;28;20052;-74
2021/03/09 05:28:30;;;;;;;8.73;5.45;;;;;;;;;;5028832;28;20785;-74
2021/03/09 05:30:55;;;;;;;9.25;5.72;;;;;;;;;;5031270;28;20025;-76
2021/03/09 05:33:20;;;;;;;7.95;5.75;;;;;;;;;;5026438;28;20021;-74
2021/03/09 05:35:46;;;;;;;8.87;5.60;;;;;;;;;;5033727;28;20525;-72
2021/03/09 05:38:11;;;;;;;9.48;5.93;;;;;;;;;;5032635;28;20350;-74
2021/03/09 05:40:36;;;;;;;9.47;5.77;;;;;;;;;;5033985;28;20029;-76
2021/03/09 05:43:02;;;;;;;8.95;5.28;;;;;;;;;;5030518;28;20803;-75
2021/03/09 05:45:27;;;;;;;8.80;5.95;;;;;;;;;;5024522;28;20034;-73
2021/03/09 05:47:52;;;;;;;8.82;5.55;;;;;;;;;;5028819;28;20021;-75
2021/03/09 05:50:18;;;;;;;7.22;5.28;;;;;;;;;;5033324;28;20029;-74
2021/03/09 05:52:43;;;;;;;10.40;5.63;;;;;;;;;;5037966;28;20026;-77
2021/03/09 05:55:09;;;;;;;8.70;5.30;;;;;;;;;;5045960;28;20036;-86
2021/03/09 05:57:35;;;;;;;7.97;5.00;;;;;;;;;;5032336;28;20028;-78
2021/03/09 06:00:00;;;;;;;8.75;5.60;;;;;;;;;;5029716;28;20484;-78
2021/03/09 06:02:25;;;;;;;7.60;5.07;;;;;;;;;;5031268;28;20543;-76
2021/03/09 06:04:51;;;;;;;8.07;5.30;;;;;;;;;;5012817;28;20030;-79
2021/03/09 06:07:17;;;;;;;10.95;7.10;;;;;;;;;;5026657;28;20298;-80
2021/03/09 06:09:45;;;;;;;8.30;6.00;;;;;;;;;;5029302;28;20025;-74
2021/03/09 06:12:11;;;;;;;9.82;6.32;;;;;;;;;;5025565;28;20025;-78
2021/03/09 06:14:40;;;;;;;16.02;7.50;;;;;;;;;;5026500;28;20030;-77
2021/03/09 06:17:06;;;;;;;9.98;6.57;;;;;;;;;;5029460;28;20465;-77
2021/03/09 06:19:49;;;;;;;9.52;6.07;;;;;;;;;;5026133;28;20095;-79
2021/03/09 06:22:15;;;;;;;8.32;5.70;;;;;;;;;;5029160;28;20116;-78
2021/03/09 06:24:40;;;;;;;8.88;5.57;;;;;;;;;;5026083;28;20578;-77
2021/03/09 06:27:25;;;;;;;10.60;5.30;;;;;;;;;;5028963;28;20063;-81
2021/03/09 06:29:50;;;;;;;7.93;5.35;;;;;;;;;;5028624;28;20033;-80
2021/03/09 06:32:15;;;;;;;8.32;5.82;;;;;;;;;;5025214;28;20493;-78
2021/03/09 06:34:41;;;;;;;8.23;5.50;;;;;;;;;;5028484;28;20025;-88
2021/03/09 06:37:07;;;;;;;9.80;5.57;;;;;;;;;;5025233;28;20080;-81
2021/03/09 06:39:51;;;;;;;7.88;5.45;;;;;;;;;;5035686;28;20120;-80
2021/03/09 06:42:32;;;;;;;8.65;5.40;;;;;;;;;;5025480;28;20515;-79
2021/03/09 06:44:59;;;;;;;8.30;5.05;;;;;;;;;;5030013;28;20116;-77
2021/03/09 06:47:31;;;;;;;9.13;5.38;;;;;;;;;;5027329;28;20111;-79
2021/03/09 06:49:56;;;;;;;8.23;5.32;;;;;;;;;;5027108;28;20453;-78
2021/03/09 06:52:22;;;;;;;9.07;5.20;;;;;;;;;;5027260;28;20017;-77
2021/03/09 06:54:48;;;;;;;10.75;5.78;;;;;;;;;;5024398;28;20257;-79
2021/03/09 06:57:13;;;;;;;8.40;5.78;;;;;;;;;;5013471;28;20022;-76
2021/03/09 06:59:40;;;;;;;8.02;5.25;;;;;;;;;;5026750;28;20037;-81
2021/03/09 07:02:09;;;;;;;11.52;6.60;;;;;;;;;;5027347;28;20095;-82
2021/03/09 07:04:35;;;;;;;8.05;5.50;;;;;;;;;;5024240;28;20077;-76
2021/03/09 07:07:00;;;;;;;7.45;4.95;;;;;;;;;;5030665;28;20064;-81
2021/03/09 07:09:25;;;;;;;8.82;5.55;;;;;;;;;;5019638;28;20052;-80
2021/03/09 07:11:51;;;;;;;10.40;5.40;;;;;;;;;;5027295;28;20472;-75
2021/03/09 07:14:16;;;;;;;6.57;5.00;;;;;;;;;;5027047;28;20033;-85
2021/03/09 07:16:45;;;;;;;8.40;5.13;;;;;;;;;;5031410;28;20336;-81
2021/03/09 07:19:10;;;;;;;7.28;4.82;;;;;;;;;;5026950;28;20036;-86
2021/03/09 07:21:35;;;;;;;9.17;5.57;;;;;;;;;;5025537;28;20026;-79
2021/03/09 07:24:01;;;;;;;7.50;5.03;;;;;;;;;;5026366;28;20810;-83
2021/03/09 07:26:26;;;;;;;8.13;5.38;;;;;;;;;;5029057;28;20280;-79
2021/03/09 07:28:51;;;;;;;7.27;4.93;;;;;;;;;;5027457;28;20486;-78
2021/03/09 07:31:21;;;;;;;7.70;4.78;;;;;;;;;;5027446;28;20029;-79
2021/03/09 07:33:46;;;;;;;;;;;;;;;;;;5029706;28;20028;-77
2021/03/09 07:36:12;;;;;;;7.80;4.95;;;;;;;;;;5030529;28;20007;-78
2021/03/09 07:38:37;;;;;;;8.63;5.05;;;;;;;;;;5025559;28;20025;-77
2021/03/09 07:41:02;;;;;;;8.93;5.27;;;;;;;;;;5028979;28;20025;-77
2021/03/09 07:43:28;;;;;;;8.03;5.60;;;;;;;;;;5027219;28;20445;-77
2021/03/09 07:45:53;;;;;;;7.93;5.07;;;;;;;;;;5029239;28;20288;-77
2021/03/09 07:48:19;;;;;;;8.38;5.55;;;;;;;;;;5028262;28;20033;-79
2021/03/09 07:50:45;;;;;;;8.30;5.35;;;;;;;;;;5036275;28;20514;-77
2021/03/09 07:53:10;;;;;;;7.15;4.85;;;;;;;;;;5034943;28;20036;-77
2021/03/09 07:55:39;;;;;;;8.52;5.40;;;;;;;;;;5038429;28;20064;-77
2021/03/09 07:58:14;;;;;;;10.18;5.28;;;;;;;;;;5031871;28;20422;-76
2021/03/09 08:00:48;;;;;;;7.55;5.18;;;;;;;;;;5035615;28;20039;-77
2021/03/09 08:03:17;;;;;;;8.48;5.50;;;;;;;;;;5035045;28;20044;-77
2021/03/09 08:05:50;;;;;;;16.02;10.98;;;;;;;;;;5035595;28;20045;-76
2021/03/09 08:08:35;;;;;;;38.95;13.77;;;;;;;;;;5029685;28;20017;-73
2021/03/09 08:11:00;;;;;;;21.85;10.48;;;;;;;;;;5028042;28;20108;-74
2021/03/09 08:13:26;;;;;;;19.45;8.05;;;;;;;;;;5028773;28;20097;-72
2021/03/09 08:15:51;;;;;;;17.05;8.93;;;;;;;;;;5028045;28;20104;-74
2021/03/09 08:18:17;;;;;;;14.23;6.70;;;;;;;;;;5039121;28;20064;-73
2021/03/09 08:20:52;;;;;;;13.65;7.30;;;;;;;;;;5026894;28;20032;-73
2021/03/09 08:25:58;;;;;;;13.52;6.60;;;;;;;;;;5030035;28;20029;-73
2021/03/09 08:28:44;;;;;;;12.13;6.88;;;;;;;;;;5028708;28;20010;-73
2021/03/09 08:31:09;;;;;;;13.18;7.22;;;;;;;;;;5032697;28;20028;-74
2021/03/09 08:33:36;;;;;;;12.82;7.82;;;;;;;;;;5025769;28;20029;-74
2021/03/09 08:39:03;;;;;;;13.32;6.90;;;;;;;;;;5026221;28;20030;-74
2021/03/09 08:41:34;;;;;;;11.88;7.03;;;;;;;;;;5030906;28;20022;-74
2021/03/09 08:44:21;;;;;;;12.05;7.38;;;;;;;;;;5040809;28;20036;-73
2021/03/09 08:47:00;;;;;;;12.40;6.90;;;;;;;;;;5035509;28;20032;-73
2021/03/09 08:49:37;;;;;;;12.02;6.72;;;;;;;;;;5034185;28;20561;-72
2021/03/09 08:52:31;;;;;;;11.43;6.57;;;;;;;;;;5031022;28;20033;-73
2021/03/09 08:54:57;;;;;;;10.50;6.53;;;;;;;;;;5031220;28;20025;-73
2021/03/09 08:57:25;;;;;;;12.52;6.95;;;;;;;;;;5032060;28;20025;-75
2021/03/09 08:59:53;;;;;;;11.88;6.57;;;;;;;;;;5033302;28;20041;-76
2021/03/09 09:02:22;;;;;;;11.95;6.95;;;;;;;;;;5030771;28;20041;-76
2021/03/09 09:05:01;;;;;;;11.52;6.20;;;;;;;;;;5029481;28;20061;-75
2021/03/09 09:07:31;;;;;;;11.05;6.57;;;;;;;;;;5027632;28;20186;-76
2021/03/09 09:09:56;;;;;;;13.20;5.95;;;;;;;;;;5031819;28;20025;-76
2021/03/09 09:12:22;;;;;;;10.20;6.37;;;;;;;;;;5032421;28;20014;-76
2021/03/09 09:15:06;;;;;;;9.65;5.90;;;;;;;;;;5032940;28;20252;-76
2021/03/09 09:17:32;;;;;;;10.80;6.15;;;;;;;;;;5027686;28;20025;-75
2021/03/09 09:20:04;;;;;;;10.20;6.25;;;;;;;;;;5029836;28;20029;-76
2021/03/09 09:22:29;;;;;;;10.75;6.45;;;;;;;;;;5028051;28;20032;-77
2021/03/09 09:24:56;;;;;;;8.32;6.15;;;;;;;;;;5029901;28;20474;-77
2021/03/09 09:27:21;;;;;;;11.85;6.32;;;;;;;;;;5029527;28;20083;-75
2021/03/09 09:29:55;;;;;;;10.30;6.03;;;;;;;;;;5028161;28;20449;-75
2021/03/09 09:32:21;;;;;;;10.02;6.13;;;;;;;;;;5026992;28;20633;-76
2021/03/09 09:34:46;;;;;;;10.50;6.13;;;;;;;;;;5032357;28;19997;-75
2021/03/09 09:37:12;;;;;;;9.73;6.50;;;;;;;;;;5029396;28;20056;-75
2021/03/09 09:39:37;;;;;;;10.27;5.85;;;;;;;;;;5030987;28;20076;-81
2021/03/09 09:42:03;;;;;;;9.43;6.07;;;;;;;;;;5030931;28;20144;-76
2021/03/09 09:44:28;;;;;;;8.80;5.93;;;;;;;;;;5027452;28;20276;-75
2021/03/09 09:46:53;;;;;;;8.77;5.93;;;;;;;;;;5026968;28;20021;-76
2021/03/09 09:49:19;;;;;;;9.05;6.03;;;;;;;;;;5030480;28;20268;-77
2021/03/09 09:51:45;;;;;;;9.52;6.30;;;;;;;;;;5028580;28;20014;-77
2021/03/09 09:54:11;;;;;;;8.55;5.60;;;;;;;;;;5031235;28;20017;-76
2021/03/09 09:56:36;;;;;;;11.18;6.63;;;;;;;;;;5033398;28;20060;-78
2021/03/09 09:59:01;;;;;;;8.87;5.93;;;;;;;;;;5031907;28;20509;-78
2021/03/09 10:01:33;;;;;;;8.45;5.90;;;;;;;;;;5026851;28;20682;-78
2021/03/09 10:03:59;;;;;;;9.15;6.00;;;;;;;;;;5028965;28;20400;-78
2021/03/09 10:06:25;;;;;;;8.80;5.95;;;;;;;;;;5026652;28;20041;-81
2021/03/09 10:08:50;;;;;;;9.30;6.18;;;;;;;;;;5029461;28;20512;-81
2021/03/09 10:11:15;;;;;;;10.40;6.22;;;;;;;;;;5026810;28;20018;-81
2021/03/09 10:13:41;;;;;;;10.68;6.40;;;;;;;;;;5028125;28;20025;-80
2021/03/09 10:16:06;;;;;;;9.07;6.27;;;;;;;;;;5028970;28;20037;-81
2021/03/09 10:18:35;;;;;;;10.55;6.20;;;;;;;;;;5028172;28;20271;-81
2021/03/09 10:21:04;;;;;;;9.75;6.25;;;;;;;;;;5028151;28;20320;-77
2021/03/09 10:23:30;;;;;;;9.43;5.70;;;;;;;;;;5026906;28;20033;-82
2021/03/09 10:25:59;;;;;;;9.50;5.85;;;;;;;;;;5024983;28;20029;-85
2021/03/09 10:28:25;;;;;;;12.75;6.28;;;;;;;;;;5030533;28;20561;-81
2021/03/09 10:30:51;;;;;;;9.88;5.80;;;;;;;;;;5031888;28;20103;-81
2021/03/09 10:33:16;;;;;;;9.38;5.80;;;;;;;;;;5031338;28;20041;-81
2021/03/09 10:36:00;;;;;;;9.63;5.57;;;;;;;;;;5016177;28;20030;-81
2021/03/09 10:38:26;;;;;;;9.95;5.65;;;;;;;;;;5011582;28;20264;-84
2021/03/09 10:40:51;;;;;;;11.38;6.78;;;;;;;;;;5011321;28;20026;-83
2021/03/09 10:43:16;;;;;;;10.63;5.80;;;;;;;;;;5011270;28;20017;-83
2021/03/09 10:45:42;;;;;;;7.95;5.53;;;;;;;;;;5009918;28;20072;-83
2021/03/09 10:48:07;;;;;;;9.20;5.72;;;;;;;;;;5011450;28;20021;-83
2021/03/09 10:50:38;;;;;;;9.00;5.90;;;;;;;;;;5010946;28;20022;-82
2021/03/09 10:53:03;;;;;;;9.60;5.57;;;;;;;;;;5012174;28;20072;-83
2021/03/09 10:55:29;;;;;;;9.27;5.47;;;;;;;;;;5029931;28;20018;-79
2021/03/09 10:57:54;;;;;;;9.63;5.70;;;;;;;;;;5044746;28;20075;-81
2021/03/09 11:00:19;;;;;;;9.10;5.87;;;;;;;;;;5011236;28;20029;-79
2021/03/09 11:02:45;;;;;;;10.00;6.65;;;;;;;;;;5016106;28;20313;-81
2021/03/09 11:05:11;;;;;;;8.65;5.57;;;;;;;;;;5028392;28;20030;-83
2021/03/09 11:07:36;;;;;;;8.52;5.45;;;;;;;;;;5028371;28;20398;-82
2021/03/09 11:10:02;;;;;;;8.88;5.55;;;;;;;;;;5027034;28;20018;-81
2021/03/09 11:12:28;;;;;;;8.38;5.60;;;;;;;;;;5030650;28;20026;-82
2021/03/09 11:14:53;;;;;;;9.37;5.70;;;;;;;;;;5019854;28;20029;-82
2021/03/09 11:17:18;;;;;;;9.48;6.25;;;;;;;;;;5028215;28;20276;-83
2021/03/09 11:19:43;;;;;;;8.45;5.93;;;;;;;;;;5029036;28;20560;-84
2021/03/09 11:22:09;;;;;;;7.53;5.75;;;;;;;;;;5027848;28;20037;-84
2021/03/09 11:24:34;;;;;;;8.60;5.72;;;;;;;;;;5030395;28;20506;-83
2021/03/09 11:27:01;;;;;;;9.40;5.40;;;;;;;;;;5029826;28;20033;-83
2021/03/09 11:29:29;;;;;;;9.07;5.38;;;;;;;;;;5031420;28;20684;-84
2021/03/09 11:31:54;;;;;;;7.57;5.50;;;;;;;;;;5030524;28;20498;-87
2021/03/09 11:34:20;;;;;;;7.68;5.00;;;;;;;;;;5026389;28;20037;-85
2021/03/09 11:36:45;;;;;;;8.05;5.53;;;;;;;;;;5009489;28;20079;-84
2021/03/09 11:39:10;;;;;;;9.70;5.57;;;;;;;;;;5010841;28;20051;-84
2021/03/09 11:41:35;;;;;;;7.88;5.35;;;;;;;;;;5014083;28;20041;-84
2021/03/09 11:44:01;;;;;;;9.32;5.68;;;;;;;;;;5012039;28;20410;-84
2021/03/09 11:46:26;;;;;;;8.77;5.50;;;;;;;;;;5009890;28;20021;-84
2021/03/09 11:48:51;;;;;;;7.47;5.03;;;;;;;;;;5011341;28;20491;-84
2021/03/09 11:51:17;;;;;;;8.57;5.90;;;;;;;;;;5010488;28;20694;-83
2021/03/09 11:53:42;;;;;;;7.88;5.70;;;;;;;;;;5011008;28;20029;-84
2021/03/09 11:56:07;;;;;;;8.55;5.20;;;;;;;;;;5010876;28;20021;-83
2021/03/09 11:58:33;;;;;;;9.80;4.83;;;;;;;;;;5012033;28;20025;-83
2021/03/09 12:00:58;;;;;;;8.40;5.32;;;;;;;;;;5013988;28;20296;-83
2021/03/09 12:03:23;;;;;;;16.77;6.27;;;;;;;;;;5027311;28;20056;-83
2021/03/09 12:05:48;;;;;;;11.13;5.35;;;;;;;;;;5013859;28;20268;-84
2021/03/09 12:08:14;;;;;;;11.23;4.95;;;;;;;;;;5029185;28;20025;-85
2021/03/09 12:10:39;;;;;;;15.27;6.15;;;;;;;;;;5033008;28;20479;-85
2021/03/09 12:13:04;;;;;;;11.55;5.70;;;;;;;;;;5036073;28;20033;-86
2021/03/09 12:15:30;;;;;;;12.68;5.43;;;;;;;;;;5032709;28;20017;-79
2021/03/09 12:17:55;;;;;;;11.67;5.57;;;;;;;;;;5032267;28;20494;-86
2021/03/09 12:20:20;;;;;;;12.25;5.65;;;;;;;;;;5031604;28;20268;-84
2021/03/09 12:22:46;;;;;;;10.25;5.53;;;;;;;;;;5046750;28;20022;-85
2021/03/09 12:25:11;;;;;;;10.45;5.82;;;;;;;;;;5047006;28;20013;-83
2021/03/09 12:27:37;;;;;;;12.73;5.70;;;;;;;;;;5029452;28;20026;-79
2021/03/09 12:30:06;;;;;;;11.55;5.72;;;;;;;;;;5030514;28;20032;-80
2021/03/09 12:32:31;;;;;;;9.07;5.15;;;;;;;;;;5029103;28;20093;-77
2021/03/09 12:34:56;;;;;;;11.73;5.03;;;;;;;;;;5030885;28;20120;-75
2021/03/09 12:37:22;;;;;;;9.40;6.00;;;;;;;;;;5030271;28;20022;-74
2021/03/09 12:39:47;;;;;;;9.68;5.25;;;;;;;;;;5017632;28;20530;-85
2021/03/09 12:42:13;;;;;;;9.10;5.05;;;;;;;;;;5025207;28;20021;-84
2021/03/09 12:44:38;;;;;;;10.02;6.15;;;;;;;;;;5014818;28;20030;-83
2021/03/09 12:47:03;;;;;;;9.20;5.33;;;;;;;;;;5021693;28;20029;-83
2021/03/09 12:49:28;;;;;;;10.70;6.45;;;;;;;;;;5020102;28;20260;-84
2021/03/09 12:51:54;;;;;;;9.63;5.40;;;;;;;;;;5021723;28;20441;-84
2021/03/09 12:54:19;;;;;;;9.98;5.63;;;;;;;;;;5024947;28;20068;-84
2021/03/09 12:56:44;;;;;;;10.75;5.57;;;;;;;;;;5028168;28;20024;-84
2021/03/09 12:59:09;;;;;;;9.30;5.47;;;;;;;;;;5031778;28;20100;-85
2021/03/09 13:01:35;;;;;;;9.40;5.60;;;;;;;;;;5027519;28;20037;-86
2021/03/09 13:04:00;;;;;;;11.48;5.78;;;;;;;;;;5028617;28;20296;-81
2021/03/09 13:06:25;;;;;;;9.50;5.40;;;;;;;;;;5030512;28;20091;-79
2021/03/09 13:08:51;;;;;;;11.32;5.63;;;;;;;;;;5032442;28;20031;-79
2021/03/09 13:11:16;;;;;;;9.43;5.65;;;;;;;;;;5029815;28;20430;-81
2021/03/09 13:13:41;;;;;;;7.55;5.32;;;;;;;;;;5031386;28;20029;-79
2021/03/09 13:16:07;;;;;;;9.82;5.63;;;;;;;;;;5030264;28;20048;-83
2021/03/09 13:18:32;;;;;;;10.20;5.90;;;;;;;;;;5032215;28;20570;-78
2021/03/09 13:20:57;;;;;;;10.38;6.28;;;;;;;;;;5028455;28;20104;-78
2021/03/09 13:23:23;;;;;;;10.23;5.68;;;;;;;;;;5027053;28;20037;-78
2021/03/09 13:25:48;;;;;;;9.55;5.28;;;;;;;;;;5028172;28;20033;-78
2021/03/09 13:28:13;;;;;;;11.07;5.43;;;;;;;;;;5031045;28;20064;-78
2021/03/09 13:30:39;;;;;;;7.47;5.18;;;;;;;;;;5032167;28;20044;-78
2021/03/09 13:33:04;;;;;;;9.27;5.27;;;;;;;;;;5044057;28;20470;-77
2021/03/09 13:35:29;;;;;;;8.82;5.63;;;;;;;;;;5025717;28;20760;-76
2021/03/09 13:37:55;;;;;;;9.47;5.60;;;;;;;;;;5027894;28;20018;-77
2021/03/09 13:40:20;;;;;;;10.52;5.43;;;;;;;;;;5028904;28;20079;-77
2021/03/09 13:42:45;;;;;;;8.98;5.30;;;;;;;;;;5029268;28;20023;-77
2021/03/09 13:45:12;;;;;;;9.53;5.40;;;;;;;;;;5031959;28;20103;-78
2021/03/09 13:47:37;;;;;;;8.80;5.13;;;;;;;;;;5028191;28;20311;-79
2021/03/09 13:50:03;;;;;;;7.93;5.20;;;;;;;;;;5037054;28;20013;-77
2021/03/09 13:52:29;;;;;;;8.77;5.53;;;;;;;;;;5035766;28;20299;-78
2021/03/09 13:54:54;;;;;;;10.20;6.13;;;;;;;;;;5036091;28;20025;-76
2021/03/09 13:57:19;;;;;;;8.40;5.60;;;;;;;;;;5036413;28;20048;-78
2021/03/09 13:59:45;;;;;;;8.85;5.38;;;;;;;;;;5036099;28;20366;-78
2021/03/09 14:02:10;;;;;;;8.63;5.70;;;;;;;;;;5029579;28;20037;-77
2021/03/09 14:04:36;;;;;;;10.05;5.60;;;;;;;;;;5030421;28;20494;-78
2021/03/09 14:07:01;;;;;;;8.65;5.40;;;;;;;;;;5026260;28;20029;-78
2021/03/09 14:09:26;;;;;;;7.93;5.60;;;;;;;;;;5028488;28;20013;-77
2021/03/09 14:11:51;;;;;;;8.27;5.53;;;;;;;;;;5027622;28;20553;-77
2021/03/09 14:14:17;;;;;;;7.83;5.23;;;;;;;;;;5027331;28;20855;-78
2021/03/09 14:16:42;;;;;;;8.93;5.30;;;;;;;;;;5027651;28;20848;-78
2021/03/09 14:19:07;;;;;;;9.32;5.90;;;;;;;;;;5030355;28;20272;-78
2021/03/09 14:21:33;;;;;;;8.70;5.90;;;;;;;;;;5013066;28;20041;-78
2021/03/09 14:23:58;;;;;;;7.85;5.25;;;;;;;;;;5018407;28;20025;-78
2021/03/09 14:26:24;;;;;;;8.38;5.40;;;;;;;;;;5011104;28;20026;-78
2021/03/09 14:28:49;;;;;;;8.80;5.47;;;;;;;;;;5023496;28;20387;-77
2021/03/09 14:31:14;;;;;;;8.30;5.47;;;;;;;;;;5031319;28;20280;-77
2021/03/09 14:33:39;;;;;;;8.30;5.40;;;;;;;;;;5031850;28;20094;-76
2021/03/09 14:36:05;;;;;;;8.07;5.32;;;;;;;;;;5029082;28;20260;-76
2021/03/09 14:38:30;;;;;;;10.07;5.78;;;;;;;;;;5028489;28;20437;-77